Terminal Aerodrome Forecast
Issued by NWS Grand Forks, ND

Home | Current Version | Previous Version | Graphics & Text | Print | Product List | Glossary On
Versions: 1 2 3 4 5 6 7 8 9 10 11 12 13 14 15 16 17 18
000
FTUS43 KFGF 291130
TAFGFK
TAF
KGFK 291130Z 2912/3012 28007KT P6SM SCT080
     FM291800 34014G20KT P6SM SCT080 SCT250
     FM300000 35007KT P6SM SKC=

USA.gov is the U.S. government's official web portal to all federal, state and local government web resources and services.